Time;durP1;ratioP1;P1;durP2;ratioP2;P2;SDS_P1;SDS_P2;PMS_P1;PMS_P2;Temp;Humidity;BMP_temperature;BMP_pressure;BME280_temperature;BME280_humidity;BME280_pressure;Samples;Min_cycle;Max_cycle;Signal;HPM_P1;HPM_P2
2022/11/09 00:01:25;;;;;;;25.35;16.07;;;;;;;9.18;88.53;100653.56;1799086;78;25917;-81
2022/11/09 00:03:57;;;;;;;35.25;16.97;;;;;;;9.19;88.59;100659.25;1773991;77;25782;-80
2022/11/09 00:06:24;;;;;;;27.15;17.32;;;;;;;9.20;88.59;100654.22;1795585;78;27454;-80
2022/11/09 00:08:51;;;;;;;24.25;15.95;;;;;;;9.18;88.55;100645.05;1805171;77;25893;-80
2022/11/09 00:11:19;;;;;;;29.85;19.10;;;;;;;9.19;88.54;100644.05;1789237;78;25774;-80
2022/11/09 00:13:45;;;;;;;28.85;18.20;;;;;;;9.21;88.43;100645.20;1789454;78;26575;-81
2022/11/09 00:16:16;;;;;;;31.50;18.80;;;;;;;9.20;88.44;100648.88;1807497;77;25989;-80
2022/11/09 00:18:46;;;;;;;28.07;18.50;;;;;;;9.20;88.38;100644.86;1799891;77;27446;-81
2022/11/09 00:21:20;;;;;;;31.33;18.90;;;;;;;9.19;88.35;100651.23;1791671;77;26254;-80
2022/11/09 00:23:47;;;;;;;30.43;17.67;;;;;;;9.18;88.37;100640.20;1749608;79;25874;-81
2022/11/09 00:26:16;;;;;;;31.97;19.15;;;;;;;9.17;88.40;100639.89;1799380;78;26411;-80
2022/11/09 00:28:42;;;;;;;33.55;19.98;;;;;;;9.15;88.42;100645.39;1791669;78;26386;-79
2022/11/09 00:31:16;;;;;;;32.13;20.30;;;;;;;9.14;88.51;100638.40;1783111;78;27441;-80
2022/11/09 00:33:53;;;;;;;31.90;20.55;;;;;;;9.15;88.67;100645.92;1776465;78;26520;-80
2022/11/09 00:36:20;;;;;;;33.63;20.80;;;;;;;9.15;88.85;100644.05;1758293;80;25787;-81
2022/11/09 00:38:51;;;;;;;30.77;18.30;;;;;;;9.15;88.90;100645.39;1803844;77;25837;-81
2022/11/09 00:41:19;;;;;;;32.17;19.75;;;;;;;9.16;89.03;100644.39;1754915;80;25276;-81
2022/11/09 00:43:46;;;;;;;31.42;19.50;;;;;;;9.16;89.17;100643.06;1769141;79;27446;-81
2022/11/09 00:46:13;;;;;;;29.45;19.15;;;;;;;9.16;89.25;100642.22;1783178;78;26481;-81
2022/11/09 00:48:39;;;;;;;31.93;19.48;;;;;;;9.15;89.37;100645.39;1779309;79;25797;-81
2022/11/09 00:51:06;;;;;;;31.73;19.73;;;;;;;9.18;89.51;100638.87;1785776;78;25739;-81
2022/11/09 00:53:33;;;;;;;34.13;20.43;;;;;;;9.19;89.56;100643.22;1785573;78;26373;-81
2022/11/09 00:56:02;;;;;;;35.73;20.95;;;;;;;9.20;89.58;100642.19;1799526;78;27413;-81
2022/11/09 00:58:33;;;;;;;36.53;21.07;;;;;;;9.20;89.58;100640.85;1802378;78;25906;-81
2022/11/09 01:01:14;;;;;;;36.38;20.27;;;;;;;9.21;89.57;100640.70;1788958;78;26082;-80
2022/11/09 01:03:44;;;;;;;40.35;21.30;;;;;;;9.20;89.57;100645.70;1786786;78;25628;-81
2022/11/09 01:06:18;;;;;;;33.05;20.02;;;;;;;9.20;89.48;100638.18;1785043;78;26571;-80
2022/11/09 01:08:45;;;;;;;33.53;19.40;;;;;;;9.17;89.42;100638.02;1805006;78;27689;-82
2022/11/09 01:11:15;;;;;;;36.63;21.20;;;;;;;9.16;89.35;100635.05;1806639;77;25760;-80
2022/11/09 01:13:42;;;;;;;37.45;21.87;;;;;;;9.15;89.34;100636.56;1781812;78;25702;-81
2022/11/09 01:16:14;;;;;;;38.78;20.85;;;;;;;9.11;89.31;100637.40;1784035;78;26428;-81
2022/11/09 01:18:41;;;;;;;33.65;20.37;;;;;;;9.11;89.36;100636.59;1779058;78;25907;-81
2022/11/09 01:21:10;;;;;;;34.92;20.23;;;;;;;9.09;89.32;100638.08;1782449;78;27461;-81
2022/11/09 01:23:38;;;;;;;33.15;20.12;;;;;;;9.10;89.33;100637.59;1771847;78;26378;-81
2022/11/09 01:26:08;;;;;;;36.15;21.65;;;;;;;9.09;89.29;100634.57;1786397;78;25809;-81
2022/11/09 01:28:35;;;;;;;35.17;21.30;;;;;;;9.09;89.15;100633.23;1753974;79;25839;-81
2022/11/09 01:31:08;;;;;;;33.18;20.95;;;;;;;9.07;89.11;100634.76;1785959;79;25952;-80
2022/11/09 01:33:35;;;;;;;35.08;21.12;;;;;;;9.08;88.99;100635.59;1779171;78;27505;-81
2022/11/09 01:36:06;;;;;;;34.03;21.40;;;;;;;9.06;88.84;100631.77;1783302;78;25817;-82
2022/11/09 01:38:35;;;;;;;32.05;21.55;;;;;;;9.04;88.77;100636.46;1782107;78;26059;-81
2022/11/09 01:41:01;;;;;;;31.42;20.40;;;;;;;9.04;88.81;100635.12;1782476;78;25977;-82
2022/11/09 01:43:28;;;;;;;32.28;20.17;;;;;;;9.03;88.56;100632.61;1773369;79;25463;-80
2022/11/09 01:46:23;;;;;;;37.80;21.27;;;;;;;9.00;88.50;100626.30;1774312;79;27520;-81
2022/11/09 01:48:57;;;;;;;35.25;20.88;;;;;;;8.99;88.51;100630.80;1778274;79;25822;-81
2022/11/09 01:51:31;;;;;;;40.38;20.32;;;;;;;8.97;88.43;100621.30;1763728;80;25711;-82
2022/11/09 01:54:11;;;;;;;33.67;20.85;;;;;;;8.95;88.36;100616.14;1769263;78;25921;-82
2022/11/09 01:56:39;;;;;;;36.05;21.23;;;;;;;8.93;88.27;100613.30;1789992;77;25953;-82
2022/11/09 01:59:11;;;;;;;38.98;21.20;;;;;;;8.92;88.21;100610.29;1808738;78;27452;-80
2022/11/09 02:01:37;;;;;;;30.62;20.08;;;;;;;8.90;88.26;100609.64;1808180;77;25577;-80
2022/11/09 02:04:16;;;;;;;35.33;21.30;;;;;;;8.87;88.16;100609.52;1803459;77;25751;-81
2022/11/09 02:06:44;;;;;;;33.15;20.70;;;;;;;8.86;88.18;100611.84;1802733;78;25947;-81
2022/11/09 02:09:42;;;;;;;37.28;21.73;;;;;;;8.85;88.23;100608.02;1780942;79;26449;-81
2022/11/09 02:12:09;;;;;;;35.13;20.68;;;;;;;8.83;88.16;100604.69;1759469;80;27423;-80
2022/11/09 02:14:38;;;;;;;35.25;20.48;;;;;;;8.82;88.15;100604.34;1797062;78;25778;-81
2022/11/09 02:17:05;;;;;;;37.65;22.15;;;;;;;8.80;88.16;100603.20;1755680;80;26159;-82
2022/11/09 02:19:31;;;;;;;38.30;22.22;;;;;;;8.78;88.15;100606.55;1791129;78;26545;-80
2022/11/09 02:21:57;;;;;;;36.08;21.77;;;;;;;8.77;88.33;100608.07;1789648;78;26385;-82
2022/11/09 02:24:24;;;;;;;35.35;22.00;;;;;;;8.77;88.52;100606.73;1778054;78;27466;-81
2022/11/09 02:26:52;;;;;;;37.30;22.30;;;;;;;8.75;88.49;100601.55;1794483;78;25819;-81
2022/11/09 02:29:28;;;;;;;38.95;21.93;;;;;;;8.74;88.60;100603.06;1776668;78;25769;-82
2022/11/09 02:32:00;;;;;;;34.40;21.73;;;;;;;8.74;88.68;100605.73;1777971;78;25918;-82
2022/11/09 02:34:27;;;;;;;39.45;23.02;;;;;;;8.73;88.78;100611.56;1796416;78;25885;-81
2022/11/09 02:36:53;;;;;;;39.00;21.73;;;;;;;8.72;88.82;100597.91;1783930;78;27498;-81
2022/11/09 02:39:24;;;;;;;37.88;22.82;;;;;;;8.72;88.81;100601.07;1783916;78;26163;-81
2022/11/09 02:42:11;;;;;;;40.12;24.65;;;;;;;8.72;88.86;100605.91;1789215;78;25720;-81
2022/11/09 02:44:43;;;;;;;37.90;22.58;;;;;;;8.70;88.95;100601.25;1753739;78;25869;-81
2022/11/09 02:47:09;;;;;;;41.98;24.15;;;;;;;8.68;89.25;100604.61;1793040;78;26118;-82
2022/11/09 02:49:36;;;;;;;41.08;23.67;;;;;;;8.67;89.55;100604.27;1793386;78;27388;-81
2022/11/09 02:52:02;;;;;;;42.65;25.20;;;;;;;8.69;89.77;100604.08;1786688;78;25782;-81
2022/11/09 02:54:29;;;;;;;43.65;24.67;;;;;;;8.70;89.89;100611.09;1788562;78;25865;-81
2022/11/09 02:56:56;;;;;;;39.40;22.32;;;;;;;8.69;90.09;100605.41;1785067;78;26233;-81
2022/11/09 02:59:22;;;;;;;39.70;24.15;;;;;;;8.69;90.20;100600.07;1811487;78;25742;-81
2022/11/09 03:01:49;;;;;;;43.17;24.47;;;;;;;8.69;90.30;100602.25;1788764;78;28301;-82
2022/11/09 03:04:15;;;;;;;40.40;24.40;;;;;;;8.70;90.47;100607.09;1771860;78;25872;-80
2022/11/09 03:06:42;;;;;;;41.77;24.37;;;;;;;8.70;90.52;100609.77;1801629;78;26465;-81
2022/11/09 03:09:11;;;;;;;43.25;24.02;;;;;;;8.70;90.68;100610.60;1779095;78;26350;-81
2022/11/09 03:11:41;;;;;;;37.73;22.65;;;;;;;8.71;90.79;100609.58;1782493;78;26356;-82
2022/11/09 03:14:10;;;;;;;39.95;26.07;;;;;;;8.72;90.79;100619.77;1790659;78;27416;-81
2022/11/09 03:16:38;;;;;;;43.68;24.47;;;;;;;8.73;90.88;100618.73;1789571;78;26409;-80
2022/11/09 03:19:06;;;;;;;43.33;24.23;;;;;;;8.73;90.89;100624.92;1800446;78;25857;-80
2022/11/09 03:21:33;;;;;;;40.23;23.70;;;;;;;8.73;90.89;100625.42;1805775;78;25762;-81
2022/11/09 03:23:59;;;;;;;42.25;25.23;;;;;;;8.71;90.84;100618.92;1809471;78;25834;-81
2022/11/09 03:26:25;;;;;;;40.15;23.25;;;;;;;8.72;90.88;100616.59;1811485;78;27662;-81
2022/11/09 03:28:52;;;;;;;42.55;24.35;;;;;;;8.73;90.93;100613.40;1801602;78;25829;-80
2022/11/09 03:31:18;;;;;;;36.45;22.50;;;;;;;8.73;90.85;100610.73;1803719;78;26251;-80
2022/11/09 03:33:46;;;;;;;39.42;24.15;;;;;;;8.74;90.81;100614.58;1795393;78;25881;-82
2022/11/09 03:36:14;;;;;;;40.05;23.32;;;;;;;8.73;90.77;100610.23;1789676;78;25905;-83
2022/11/09 03:38:40;;;;;;;40.00;23.83;;;;;;;8.72;90.75;100607.75;1799484;78;27451;-81
2022/11/09 03:41:07;;;;;;;39.90;24.02;;;;;;;8.71;90.79;100602.06;1787742;78;25949;-82
2022/11/09 03:43:34;;;;;;;44.88;25.27;;;;;;;8.68;90.76;100605.94;1789528;78;25774;-81
2022/11/09 03:46:00;;;;;;;46.00;25.97;;;;;;;8.67;90.74;100598.92;1789552;78;26565;-80
2022/11/09 03:48:26;;;;;;;42.43;24.67;;;;;;;8.65;90.78;100600.94;1760206;80;25957;-81
2022/11/09 03:50:53;;;;;;;43.28;25.68;;;;;;;8.65;90.86;100594.27;1796069;77;28652;-80
2022/11/09 03:53:19;;;;;;;41.63;24.23;;;;;;;8.65;90.90;100594.76;1801338;77;25811;-81
2022/11/09 03:55:45;;;;;;;40.05;23.70;;;;;;;8.65;90.95;100590.75;1804013;77;25289;-80
2022/11/09 03:58:12;;;;;;;40.20;24.72;;;;;;;8.65;91.01;100588.92;1771681;80;26676;-81
2022/11/09 04:00:38;;;;;;;39.90;25.23;;;;;;;8.65;90.98;100586.75;1760073;79;26368;-81
2022/11/09 04:03:04;;;;;;;41.88;24.87;;;;;;;8.66;91.00;100588.42;1775665;80;27369;-80
2022/11/09 04:05:30;;;;;;;45.20;25.77;;;;;;;8.64;91.02;100587.24;1766701;80;25835;-81
2022/11/09 04:07:58;;;;;;;46.70;25.92;;;;;;;8.64;91.05;100580.56;1803453;77;26417;-81
2022/11/09 04:10:25;;;;;;;42.38;25.90;;;;;;;8.64;91.11;100583.23;1807094;78;26570;-81
2022/11/09 04:12:52;;;;;;;45.60;27.20;;;;;;;8.64;91.13;100587.77;1804309;77;25745;-80
2022/11/09 04:15:18;;;;;;;44.58;25.15;;;;;;;8.63;91.17;100584.26;1785895;78;27423;-79
2022/11/09 04:17:44;;;;;;;43.78;26.10;;;;;;;8.62;91.31;100583.11;1758361;80;25778;-81
2022/11/09 04:20:11;;;;;;;46.80;25.25;;;;;;;8.62;91.40;100582.58;1784908;78;25795;-81
2022/11/09 04:22:37;;;;;;;44.08;26.12;;;;;;;8.62;91.42;100585.25;1808047;78;26241;-80
2022/11/09 04:25:04;;;;;;;42.98;24.85;;;;;;;8.61;91.40;100579.59;1816746;78;25765;-80
2022/11/09 04:27:31;;;;;;;43.05;25.25;;;;;;;8.61;91.43;100576.93;1801891;78;28396;-80
2022/11/09 04:29:57;;;;;;;42.80;25.40;;;;;;;8.61;91.41;100566.25;1799605;78;26419;-80
2022/11/09 04:32:23;;;;;;;49.48;26.70;;;;;;;8.61;91.49;100568.08;1792173;78;25718;-82
2022/11/09 04:34:50;;;;;;;43.28;26.35;;;;;;;8.59;91.52;100568.76;1774713;78;25811;-82
2022/11/09 04:37:16;;;;;;;45.30;25.40;;;;;;;8.56;91.62;100563.26;1779714;78;25747;-80
2022/11/09 04:39:42;;;;;;;50.28;27.67;;;;;;;8.54;91.66;100566.61;1781565;78;27460;-80
2022/11/09 04:42:08;;;;;;;48.78;26.87;;;;;;;8.51;91.72;100577.13;1791294;78;25882;-81
2022/11/09 04:44:35;;;;;;;47.95;25.65;;;;;;;8.51;91.81;100578.98;1802704;78;26152;-81
2022/11/09 04:47:01;;;;;;;44.05;26.35;;;;;;;8.49;91.86;100583.64;1786482;78;25955;-82
2022/11/09 04:49:27;;;;;;;41.60;24.45;;;;;;;8.50;91.98;100581.31;1797318;78;25969;-80
2022/11/09 04:51:53;;;;;;;44.25;26.15;;;;;;;8.52;91.95;100581.97;1800560;78;27430;-81
2022/11/09 04:54:19;;;;;;;41.02;25.48;;;;;;;8.51;91.90;100583.80;1786359;78;25635;-82
2022/11/09 04:56:46;;;;;;;44.85;25.50;;;;;;;8.52;91.90;100583.30;1767558;78;25736;-81
2022/11/09 04:59:12;;;;;;;46.13;25.97;;;;;;;8.49;91.84;100576.47;1769488;78;26576;-80
2022/11/09 05:01:38;;;;;;;42.73;25.10;;;;;;;8.47;91.87;100580.31;1773939;78;25885;-80
2022/11/09 05:04:04;;;;;;;42.00;26.52;;;;;;;8.50;91.95;100580.82;1776298;78;27441;-81
2022/11/09 05:06:31;;;;;;;43.45;25.45;;;;;;;8.48;91.88;100580.16;1779351;78;25766;-81
2022/11/09 05:09:00;;;;;;;46.20;26.45;;;;;;;8.48;91.93;100581.50;1782812;78;25772;-82
2022/11/09 05:11:27;;;;;;;47.73;26.48;;;;;;;8.48;91.91;100580.16;1771095;78;25761;-80
2022/11/09 05:13:53;;;;;;;45.73;26.23;;;;;;;8.47;91.87;100574.48;1775708;78;25855;-81
2022/11/09 05:16:20;;;;;;;51.92;27.85;;;;;;;8.46;91.84;100574.66;1762298;78;28916;-83
2022/11/09 05:18:46;;;;;;;47.48;26.55;;;;;;;8.45;91.85;100579.66;1786173;78;26375;-80
2022/11/09 05:21:13;;;;;;;42.05;26.05;;;;;;;8.44;91.79;100572.17;1785158;78;25687;-81
2022/11/09 05:26:31;;;;;;;47.65;26.20;;;;;;;8.44;91.79;100575.34;1782311;78;26251;-81
2022/11/09 05:28:58;;;;;;;50.03;26.37;;;;;;;8.43;91.77;100580.33;1771325;78;28404;-81
2022/11/09 05:31:26;;;;;;;46.37;26.62;;;;;;;8.42;91.78;100574.69;1767491;79;25737;-79
2022/11/09 05:33:52;;;;;;;47.05;27.05;;;;;;;8.40;91.79;100574.03;1804020;78;25850;-81
2022/11/09 05:36:20;;;;;;;44.53;26.57;;;;;;;8.39;91.82;100571.02;1775284;79;25456;-81
2022/11/09 05:38:48;;;;;;;51.73;27.58;;;;;;;8.37;91.86;100570.36;1779449;78;25917;-79
2022/11/09 05:41:14;;;;;;;48.35;26.48;;;;;;;8.35;91.93;100568.36;1775405;78;27441;-82
2022/11/09 05:43:43;;;;;;;50.85;26.42;;;;;;;8.36;91.97;100570.85;1771910;79;25498;-80
2022/11/09 05:46:09;;;;;;;46.42;26.62;;;;;;;8.35;92.05;100569.20;1777817;78;25805;-81
2022/11/09 05:48:35;;;;;;;45.52;26.97;;;;;;;8.36;92.06;100576.19;1777144;79;25506;-82
2022/11/09 05:51:03;;;;;;;49.77;27.95;;;;;;;8.36;92.15;100575.38;1777553;78;26267;-80
2022/11/09 05:53:30;;;;;;;51.10;28.00;;;;;;;8.35;92.17;100577.21;1776405;78;27454;-81
2022/11/09 05:56:07;;;;;;;46.33;27.70;;;;;;;8.34;92.19;100578.20;1778890;78;26019;-82
2022/11/09 05:58:37;;;;;;;51.40;28.73;;;;;;;8.33;92.24;100575.22;1781456;78;25812;-81
2022/11/09 06:01:10;;;;;;;50.63;26.45;;;;;;;8.34;92.22;100584.06;1776551;78;26419;-81
2022/11/09 06:03:37;;;;;;;45.78;27.22;;;;;;;8.35;92.21;100583.05;1772794;78;26358;-81
2022/11/09 06:06:07;;;;;;;48.33;26.62;;;;;;;8.35;92.16;100582.55;1774889;78;28976;-80
2022/11/09 06:08:33;;;;;;;48.17;28.38;;;;;;;8.35;92.19;100589.22;1774216;78;26022;-81
2022/11/09 06:11:03;;;;;;;46.85;26.37;;;;;;;8.36;92.23;100586.86;1773806;78;25709;-81
2022/11/09 06:13:31;;;;;;;47.10;27.13;;;;;;;8.35;92.16;100585.22;1785296;78;26309;-81
2022/11/09 06:16:00;;;;;;;54.65;27.15;;;;;;;8.34;92.28;100583.53;1793048;78;25750;-81
2022/11/09 06:18:29;;;;;;;49.70;28.60;;;;;;;8.33;92.40;100580.56;1794513;78;27439;-81
2022/11/09 06:20:59;;;;;;;48.78;26.80;;;;;;;8.33;92.47;100580.56;1788292;78;25841;-81
2022/11/09 06:23:28;;;;;;;51.10;27.50;;;;;;;8.33;92.59;100579.72;1776181;78;25797;-80
2022/11/09 06:26:08;;;;;;;51.08;27.15;;;;;;;8.32;92.78;100584.22;1784429;78;26164;-81
2022/11/09 06:28:36;;;;;;;45.43;27.00;;;;;;;8.34;92.93;100580.87;1794297;78;25779;-81
2022/11/09 06:31:06;;;;;;;48.05;28.02;;;;;;;8.36;93.07;100585.53;1777141;78;28683;-80
2022/11/09 06:33:34;;;;;;;48.63;27.13;;;;;;;8.36;93.17;100582.86;1792281;78;25735;-81
2022/11/09 06:36:02;;;;;;;45.52;26.82;;;;;;;8.39;93.30;100587.87;1781424;78;25794;-81
2022/11/09 06:38:29;;;;;;;44.35;26.85;;;;;;;8.42;93.41;100585.36;1762024;78;25727;-81
2022/11/09 06:40:58;;;;;;;53.13;29.65;;;;;;;8.45;93.51;100585.00;1799401;78;25795;-81
2022/11/09 06:43:25;;;;;;;53.85;30.00;;;;;;;8.47;93.60;100583.83;1773176;78;28283;-81
2022/11/09 06:45:52;;;;;;;49.30;28.40;;;;;;;8.49;93.67;100580.97;1784908;78;26483;-81
2022/11/09 06:48:19;;;;;;;49.30;27.82;;;;;;;8.52;93.76;100584.14;1793875;78;26407;-81
2022/11/09 06:50:45;;;;;;;47.03;27.48;;;;;;;8.54;93.81;100587.97;1805690;78;26424;-80
2022/11/09 06:53:14;;;;;;;45.58;26.40;;;;;;;8.57;93.87;100589.46;1799613;78;25974;-83
2022/11/09 06:55:41;;;;;;;46.80;27.58;;;;;;;8.58;93.92;100592.44;1768935;79;27532;-81
2022/11/09 06:58:13;;;;;;;47.35;28.83;;;;;;;8.60;94.04;100588.59;1747738;79;25770;-81
2022/11/09 07:00:39;;;;;;;50.58;27.95;;;;;;;8.63;94.13;100591.43;1780506;78;25734;-81
2022/11/09 07:03:05;;;;;;;46.13;27.32;;;;;;;8.64;94.21;100592.58;1774748;78;25450;-80
2022/11/09 07:05:32;;;;;;;44.60;26.45;;;;;;;8.67;94.29;100589.58;1766615;78;25800;-80
2022/11/09 07:07:58;;;;;;;55.38;29.55;;;;;;;8.70;94.38;100585.73;1764462;78;27457;-80
2022/11/09 07:10:24;;;;;;;46.28;28.23;;;;;;;8.72;94.40;100587.22;1775810;78;26402;-80
2022/11/09 07:12:50;;;;;;;49.10;28.75;;;;;;;8.74;94.52;100582.53;1775401;78;25296;-81
2022/11/09 07:15:17;;;;;;;51.25;27.45;;;;;;;8.75;94.64;100577.51;1777508;78;25797;-81
2022/11/09 07:17:43;;;;;;;49.80;28.50;;;;;;;8.80;94.75;100578.32;1775853;78;25711;-80
2022/11/09 07:20:13;;;;;;;48.80;27.58;;;;;;;8.82;94.80;100582.98;1760510;78;27427;-80
2022/11/09 07:22:40;;;;;;;47.67;28.55;;;;;;;8.85;94.89;100583.48;1769734;78;26597;-80
2022/11/09 07:25:10;;;;;;;48.90;27.70;;;;;;;8.87;94.92;100582.80;1767107;78;25758;-81
2022/11/09 07:27:36;;;;;;;51.18;29.63;;;;;;;8.90;95.02;100589.61;1781931;78;26214;-81
2022/11/09 07:30:03;;;;;;;46.45;28.23;;;;;;;8.93;95.10;100588.77;1778112;78;25309;-81
2022/11/09 07:32:35;;;;;;;45.78;27.67;;;;;;;8.97;95.14;100590.57;1775337;78;27429;-80
2022/11/09 07:35:01;;;;;;;56.68;29.18;;;;;;;9.00;95.20;100592.38;1780330;78;26114;-80
2022/11/09 07:37:28;;;;;;;47.75;28.25;;;;;;;9.03;95.31;100588.03;1779722;78;25823;-81
2022/11/09 07:39:54;;;;;;;47.55;27.60;;;;;;;9.08;95.37;100596.85;1787049;78;26804;-81
2022/11/09 07:42:21;;;;;;;53.20;30.57;;;;;;;9.12;95.40;100600.83;1787058;78;25806;-79
2022/11/09 07:44:47;;;;;;;52.20;28.95;;;;;;;9.16;95.55;100600.80;1784866;78;27450;-82
2022/11/09 07:47:16;;;;;;;49.90;29.52;;;;;;;9.20;95.73;100598.94;1783126;78;26444;-81
2022/11/09 07:49:42;;;;;;;46.95;28.62;;;;;;;9.25;95.75;100592.56;1798042;78;25265;-80
2022/11/09 07:52:08;;;;;;;50.85;28.80;;;;;;;9.30;95.81;100595.51;1784366;78;25945;-79
2022/11/09 07:54:35;;;;;;;49.40;28.50;;;;;;;9.34;95.81;100596.00;1779159;78;25257;-82
2022/11/09 07:57:01;;;;;;;51.58;27.65;;;;;;;9.38;95.91;100593.30;1779987;78;27445;-81
2022/11/09 07:59:27;;;;;;;46.68;28.83;;;;;;;9.42;95.98;100589.75;1778063;78;25286;-83
2022/11/09 08:01:54;;;;;;;53.60;30.37;;;;;;;9.45;95.99;100580.88;1785584;78;25301;-85
2022/11/09 08:04:20;;;;;;;48.63;29.10;;;;;;;9.49;96.16;100583.52;1739073;80;26710;-88
2022/11/09 08:06:46;;;;;;;50.20;27.30;;;;;;;9.53;96.23;100575.45;1779839;78;25921;-86
2022/11/09 08:09:13;;;;;;;51.02;28.25;;;;;;;9.58;96.31;100570.38;1778748;80;27450;-83
2022/11/09 08:11:39;;;;;;;50.35;29.00;;;;;;;9.64;96.29;100571.52;1778578;78;26342;-83
2022/11/09 08:14:05;;;;;;;52.65;30.55;;;;;;;9.69;96.35;100573.95;1780654;78;25790;-85
2022/11/09 08:16:31;;;;;;;49.53;30.55;;;;;;;9.75;96.46;100571.89;1783131;78;25774;-84
2022/11/09 08:18:58;;;;;;;49.50;28.85;;;;;;;9.79;96.33;100562.52;1773020;78;26332;-85
2022/11/09 08:21:24;;;;;;;46.58;28.07;;;;;;;9.83;96.31;100557.62;1790478;78;27413;-85
2022/11/09 08:23:50;;;;;;;46.85;28.02;;;;;;;9.85;96.23;100564.95;1788195;78;25948;-85
2022/11/09 08:26:16;;;;;;;49.30;27.55;;;;;;;9.89;96.15;100559.06;1787235;78;25853;-84
2022/11/09 08:28:43;;;;;;;45.23;26.50;;;;;;;9.93;96.18;100563.52;1795810;78;25767;-85
2022/11/09 08:31:09;;;;;;;46.20;26.77;;;;;;;9.97;96.13;100562.14;1785599;78;26013;-83
2022/11/09 08:33:39;;;;;;;42.30;26.50;;;;;;;10.00;96.00;100566.64;1780414;78;27628;-83
2022/11/09 08:36:12;;;;;;;47.67;28.13;;;;;;;10.04;96.03;100563.08;1795143;78;25796;-86
2022/11/09 08:38:40;;;;;;;47.88;27.98;;;;;;;10.07;95.99;100565.40;1790169;78;25977;-84
2022/11/09 08:41:07;;;;;;;42.95;26.93;;;;;;;10.11;95.93;100569.39;1771669;78;26556;-86
2022/11/09 08:43:34;;;;;;;46.45;27.73;;;;;;;10.15;95.97;100562.66;1788191;78;25819;-86
2022/11/09 08:46:00;;;;;;;44.73;26.12;;;;;;;10.22;96.07;100570.78;1792243;78;27441;-86
2022/11/09 08:48:26;;;;;;;46.55;28.12;;;;;;;10.28;96.04;100570.03;1775196;78;26312;-84
2022/11/09 08:50:55;;;;;;;41.95;25.32;;;;;;;10.33;96.22;100574.33;1790142;78;25862;-78
2022/11/09 08:53:25;;;;;;;48.50;28.20;;;;;;;10.40;96.07;100574.73;1763980;78;26182;-79
2022/11/09 08:55:52;;;;;;;44.63;27.48;;;;;;;10.47;96.09;100580.17;1784952;78;25903;-79
2022/11/09 08:58:19;;;;;;;44.48;26.75;;;;;;;10.56;96.40;100577.72;1779439;78;27485;-79
2022/11/09 09:00:46;;;;;;;45.17;26.33;;;;;;;10.65;96.55;100583.27;1791766;78;25790;-79
2022/11/09 09:03:13;;;;;;;47.25;27.98;;;;;;;10.73;96.55;100574.61;1784096;78;26494;-79
2022/11/09 09:05:39;;;;;;;40.90;26.97;;;;;;;10.80;96.25;100573.35;1773005;78;25884;-80
2022/11/09 09:08:06;;;;;;;43.90;25.68;;;;;;;10.88;96.07;100579.97;1774722;78;25850;-79
2022/11/09 09:10:34;;;;;;;45.08;27.02;;;;;;;10.95;96.01;100580.84;1781617;78;27490;-78
2022/11/09 09:13:02;;;;;;;44.42;26.85;;;;;;;11.00;95.59;100581.62;1782532;78;25839;-78
2022/11/09 09:15:29;;;;;;;43.68;26.30;;;;;;;11.03;95.12;100581.25;1786517;78;25407;-78
2022/11/09 09:17:59;;;;;;;38.38;25.17;;;;;;;11.06;94.84;100580.86;1777988;78;26055;-78
2022/11/09 09:20:26;;;;;;;45.70;26.95;;;;;;;11.08;94.61;100579.66;1779055;78;25766;-77
2022/11/09 09:22:52;;;;;;;46.25;26.82;;;;;;;11.13;94.54;100577.74;1775590;78;27488;-78
2022/11/09 09:25:19;;;;;;;47.62;27.45;;;;;;;11.18;94.75;100581.53;1776269;78;26698;-78
2022/11/09 09:27:45;;;;;;;43.35;25.55;;;;;;;11.21;94.34;100580.30;1783473;78;25852;-79
2022/11/09 09:30:12;;;;;;;42.38;24.92;;;;;;;11.23;93.82;100595.17;1787189;79;26427;-78
2022/11/09 09:32:39;;;;;;;42.08;25.00;;;;;;;11.24;93.95;100587.47;1779400;78;25828;-78
2022/11/09 09:35:06;;;;;;;46.95;27.65;;;;;;;11.29;93.91;100589.04;1779411;78;28259;-84
2022/11/09 09:37:32;;;;;;;39.45;25.32;;;;;;;11.33;94.11;100589.51;1780649;78;26597;-84
2022/11/09 09:39:58;;;;;;;44.08;26.57;;;;;;;11.37;93.93;100592.13;1794639;78;25878;-84
2022/11/09 09:42:38;;;;;;;43.92;26.55;;;;;;;11.39;93.49;100592.76;1779882;78;25446;-85
2022/11/09 09:45:13;;;;;;;44.80;27.32;;;;;;;11.39;93.24;100589.57;1776346;78;26354;-81
2022/11/09 09:47:57;;;;;;;44.50;26.50;;;;;;;11.39;93.18;100592.25;1777616;78;27279;-83
2022/11/09 09:50:41;;;;;;;;;;;;;;;;;;;;;
2022/11/09 09:53:38;;;;;;;40.73;25.32;;;;;;;11.41;92.96;100584.84;1751771;79;25496;-89
2022/11/09 09:56:32;;;;;;;43.98;27.27;;;;;;;11.44;92.93;100584.98;1789206;78;25810;-88
2022/11/09 09:59:04;;;;;;;44.08;26.97;;;;;;;11.47;93.08;100586.75;1749935;80;25377;-90
2022/11/09 10:01:45;;;;;;;45.52;26.97;;;;;;;11.51;92.88;100589.87;1766524;78;27724;-94
2022/11/09 10:04:22;;;;;;;43.87;27.00;;;;;;;11.52;92.74;100586.17;1782400;78;25816;-91
2022/11/09 10:07:30;;;;;;;49.95;27.07;;;;;;;11.55;92.83;100581.24;1778819;79;25814;-81
2022/11/09 10:10:36;;;;;;;45.35;25.57;;;;;;;11.60;92.94;100588.72;1787082;78;25736;-79
2022/11/09 10:13:33;;;;;;;43.05;25.68;;;;;;;11.65;92.50;100587.09;1796809;78;26567;-79
2022/11/09 10:16:21;;;;;;;42.90;24.95;;;;;;;11.68;92.52;100581.06;1758630;79;27478;-79
2022/11/09 10:19:01;;;;;;;44.80;26.07;;;;;;;11.73;92.42;100575.44;1773604;79;26539;-78
2022/11/09 10:21:53;;;;;;;48.28;25.68;;;;;;;11.77;92.23;100576.70;1746309;79;25820;-79
2022/11/09 10:24:40;;;;;;;42.03;26.30;;;;;;;11.81;92.26;100575.30;1781394;79;25854;-78
2022/11/09 10:27:20;;;;;;;42.55;25.08;;;;;;;11.87;92.15;100566.45;1779220;78;26602;-79
2022/11/09 10:29:49;;;;;;;42.40;26.07;;;;;;;11.93;92.28;100564.86;1773489;78;27463;-79
2022/11/09 10:32:21;;;;;;;45.83;27.37;;;;;;;11.97;92.15;100566.96;1787909;78;26100;-79
2022/11/09 10:34:56;;;;;;;44.23;26.75;;;;;;;12.01;91.83;100568.73;1794369;78;25960;-78
2022/11/09 10:37:45;;;;;;;41.70;25.43;;;;;;;12.06;91.82;100574.34;1787173;78;26411;-81
2022/11/09 10:40:29;;;;;;;42.50;27.30;;;;;;;12.11;91.71;100577.25;1768424;80;25963;-80
2022/11/09 10:43:14;;;;;;;43.15;26.73;;;;;;;12.15;91.70;100564.58;1767833;78;27479;-81
2022/11/09 10:46:06;;;;;;;45.25;28.15;;;;;;;12.18;91.45;100558.83;1794156;78;26608;-79
2022/11/09 10:48:53;;;;;;;41.77;26.15;;;;;;;12.25;91.83;100558.86;1799422;78;25927;-80
2022/11/09 10:51:48;;;;;;;41.37;25.90;;;;;;;12.31;91.58;100559.41;1798222;78;25953;-80
2022/11/09 10:54:35;;;;;;;45.83;26.65;;;;;;;12.33;91.07;100555.50;1791655;78;26389;-80
2022/11/09 10:57:23;;;;;;;43.95;27.35;;;;;;;12.36;91.35;100557.77;1777076;78;28351;-80
2022/11/09 11:00:18;;;;;;;45.17;27.27;;;;;;;12.42;91.11;100555.33;1787823;78;25902;-80
2022/11/09 11:03:16;;;;;;;44.65;28.42;;;;;;;12.43;90.83;100552.43;1782363;78;25840;-80
2022/11/09 11:06:06;;;;;;;46.28;26.33;;;;;;;12.44;90.64;100556.79;1783241;78;25777;-80
2022/11/09 11:08:58;;;;;;;39.45;25.00;;;;;;;12.48;90.87;100558.55;1785569;78;25920;-79
2022/11/09 11:11:43;;;;;;;42.45;24.90;;;;;;;12.51;90.71;100554.14;1798223;78;27449;-86
2022/11/09 11:14:35;;;;;;;45.88;26.12;;;;;;;12.54;90.54;100562.61;1790484;79;25706;-85
2022/11/09 11:17:29;;;;;;;45.03;27.07;;;;;;;12.56;90.42;100560.55;1771356;79;25515;-83
2022/11/09 11:20:37;;;;;;;42.93;26.30;;;;;;;12.59;90.16;100562.02;1748702;80;26418;-85
2022/11/09 11:23:24;;;;;;;42.05;26.57;;;;;;;12.61;90.33;100574.23;1786698;78;25344;-81
2022/11/09 11:26:24;;;;;;;43.63;26.80;;;;;;;12.65;90.11;100578.17;1777526;79;27650;-81
2022/11/09 11:29:44;;;;;;;41.92;25.62;;;;;;;12.67;89.98;100572.08;1796670;79;26332;-81
2022/11/09 11:32:29;;;;;;;43.95;25.65;;;;;;;12.69;89.89;100570.52;1776684;80;25310;-86
2022/11/09 11:38:54;;;;;;;;;;;;;;;12.74;89.97;100572.94;1580440;88;25395;-92
2022/11/09 11:42:10;;;;;;;;;;;;;;;;;;;;;